Sennybridge, United Kingdom
Current Conditions -  °F | °C
As of 2:50 PM on Thursday 27 Nov 2014 (Local Time) from EGOP Reporting Station
Broken Clouds Broken Clouds  
Wind Chill: 45°   Ceiling: 5000
Heat Index: 48°   Visibility: 6mi
Dew Point: 41°   Wind: 8mph
Humidity: 76%   Direction: 100°E
Pressure: 29.47"   Gusts: NA
Location:  52.07°N, 3.62°W
Report Text: EGOP 271450Z AUTO 10007KT 9999 // FEW030/// BKN050/// 09/05 Q0998
Loading
Personal Weather Stations






























Interactive Weather Map New forecast layout! Learn more

10-Day Weather Forecast

Advertisements
Track Severe Weather on mobile